Time;durP1;ratioP1;P1;durP2;ratioP2;P2;SDS_P1;SDS_P2;PMS_P1;PMS_P2;Temp;Humidity;BMP_temperature;BMP_pressure;BME280_temperature;BME280_humidity;BME280_pressure;Samples;Min_cycle;Max_cycle;Signal;HPM_P1;HPM_P2
2022/03/17 00:00:54;;;;;;;56.23;23.90;;;8.70;99.70;;;;;;5090358;28;20595;-63
2022/03/17 00:03:21;;;;;;;56.30;23.63;;;8.70;99.70;;;;;;5090345;28;20499;-64
2022/03/17 00:05:48;;;;;;;55.60;24.43;;;8.70;99.70;;;;;;5092294;28;20449;-64
2022/03/17 00:08:16;;;;;;;55.07;25.00;;;8.70;99.70;;;;;;5093960;28;20553;-65
2022/03/17 00:10:44;;;;;;;58.47;24.77;;;8.70;99.70;;;;;;5094141;28;20477;-63
2022/03/17 00:13:11;;;;;;;59.83;25.70;;;8.70;99.70;;;;;;5094212;28;20442;-64
2022/03/17 00:15:39;;;;;;;60.57;25.73;;;8.70;99.70;;;;;;5094042;28;20448;-64
2022/03/17 00:18:06;;;;;;;59.23;25.27;;;8.70;99.70;;;;;;5093953;28;20552;-64
2022/03/17 00:20:33;;;;;;;57.73;24.73;;;8.70;99.70;;;;;;5094098;28;20828;-64
2022/03/17 00:23:00;;;;;;;59.47;25.40;;;8.70;99.70;;;;;;5096043;28;20442;-64
2022/03/17 00:25:29;;;;;;;55.60;24.47;;;8.60;99.70;;;;;;5096877;28;20453;-64
2022/03/17 00:27:56;;;;;;;58.97;24.43;;;8.60;99.70;;;;;;5095706;28;20461;-64
2022/03/17 00:30:23;;;;;;;58.40;25.17;;;8.60;99.70;;;;;;5096846;28;20819;-64
2022/03/17 00:32:49;;;;;;;57.93;24.60;;;8.70;99.70;;;;;;5095794;28;20478;-64
2022/03/17 00:38:00;;;;;;;57.80;25.23;;;8.60;99.70;;;;;;5095343;28;20452;-64
2022/03/17 00:40:29;;;;;;;59.43;25.13;;;8.60;99.70;;;;;;5096878;28;20476;-64
2022/03/17 00:42:56;;;;;;;62.37;26.07;;;8.60;99.70;;;;;;5094509;28;20778;-64
2022/03/17 00:45:23;;;;;;;56.73;25.20;;;8.60;99.70;;;;;;5095478;28;20442;-65
2022/03/17 00:47:50;;;;;;;56.27;25.10;;;8.60;99.70;;;;;;5094701;28;20494;-63
2022/03/17 00:50:17;;;;;;;57.20;24.80;;;8.60;99.70;;;;;;5094882;28;20868;-64
2022/03/17 00:52:44;;;;;;;58.47;24.30;;;8.60;99.70;;;;;;5095511;28;20476;-64
2022/03/17 00:55:11;;;;;;;61.43;25.83;;;8.60;99.70;;;;;;5094142;28;20450;-64
2022/03/17 00:57:39;;;;;;;62.80;25.63;;;8.60;99.70;;;;;;5095298;28;20473;-64
2022/03/17 01:00:08;;;;;;;58.30;25.37;;;8.50;99.70;;;;;;5095408;28;20448;-64
2022/03/17 01:02:35;;;;;;;62.00;24.30;;;8.50;99.70;;;;;;5094271;28;20438;-64
2022/03/17 01:05:02;;;;;;;59.10;24.90;;;8.50;99.70;;;;;;5093744;28;20449;-65
2022/03/17 01:07:31;;;;;;;58.77;25.53;;;8.40;99.70;;;;;;5095219;28;20470;-63
2022/03/17 01:09:57;;;;;;;59.90;24.87;;;8.40;99.70;;;;;;5094129;28;20829;-64
2022/03/17 01:12:24;;;;;;;55.53;24.43;;;8.50;99.70;;;;;;5094989;28;20500;-65
2022/03/17 01:14:52;;;;;;;52.70;23.70;;;8.40;99.70;;;;;;5093582;28;20445;-65
2022/03/17 01:17:19;;;;;;;58.00;24.43;;;8.40;99.70;;;;;;5092420;28;20462;-64
2022/03/17 01:19:45;;;;;;;60.87;25.20;;;8.40;99.70;;;;;;5092018;28;20541;-63
2022/03/17 01:22:12;;;;;;;59.20;24.53;;;8.40;99.70;;;;;;5092557;28;20446;-65
2022/03/17 01:24:39;;;;;;;58.60;24.73;;;8.30;99.70;;;;;;5092012;28;20842;-64
2022/03/17 01:27:05;;;;;;;63.00;26.10;;;8.30;99.70;;;;;;5091624;28;20491;-64
2022/03/17 01:29:32;;;;;;;60.40;24.10;;;8.30;99.70;;;;;;5092137;28;20469;-64
2022/03/17 01:32:00;;;;;;;59.30;24.17;;;8.30;99.70;;;;;;5091900;28;20771;-64
2022/03/17 01:34:28;;;;;;;59.07;25.97;;;8.30;99.70;;;;;;5092037;28;20576;-64
2022/03/17 01:36:55;;;;;;;61.57;25.27;;;8.30;99.70;;;;;;5090927;28;20505;-64
2022/03/17 01:39:21;;;;;;;57.33;25.40;;;8.30;99.70;;;;;;5091681;28;20438;-64
2022/03/17 01:41:48;;;;;;;63.97;26.10;;;8.30;99.70;;;;;;5092077;28;20508;-64
2022/03/17 01:44:15;;;;;;;55.07;24.67;;;8.30;99.70;;;;;;5091673;28;20798;-63
2022/03/17 01:49:27;;;;;;;62.30;24.03;;;8.30;99.70;;;;;;5110448;28;20540;-64
2022/03/17 01:51:54;;;;;;;58.23;25.70;;;8.30;99.70;;;;;;5091667;28;20473;-64
2022/03/17 01:54:20;;;;;;;60.60;24.93;;;8.20;99.70;;;;;;5091522;28;20503;-64
2022/03/17 01:56:48;;;;;;;59.60;25.10;;;8.30;99.70;;;;;;5091450;28;20891;-65
2022/03/17 01:59:15;;;;;;;57.23;25.10;;;8.20;99.70;;;;;;5091196;28;20446;-64
2022/03/17 02:01:42;;;;;;;57.90;24.87;;;8.20;99.70;;;;;;5091357;28;20442;-62
2022/03/17 02:04:09;;;;;;;62.87;25.07;;;8.20;99.70;;;;;;5091570;28;20732;-65
2022/03/17 02:06:38;;;;;;;57.60;24.10;;;8.20;99.70;;;;;;5090453;28;20458;-63
2022/03/17 02:09:04;;;;;;;61.00;25.77;;;8.20;99.70;;;;;;5091128;28;20476;-64
2022/03/17 02:14:21;;;;;;;63.00;24.67;;;8.20;99.70;;;;;;5091119;28;20527;-64
2022/03/17 02:16:47;;;;;;;56.20;24.10;;;8.20;99.70;;;;;;5090641;28;20474;-63
2022/03/17 02:19:14;;;;;;;58.10;25.30;;;8.20;99.70;;;;;;5092387;28;20434;-64
2022/03/17 02:21:44;;;;;;;59.50;23.43;;;8.20;99.70;;;;;;5093667;28;20499;-65
2022/03/17 02:26:57;;;;;;;55.00;23.20;;;8.20;99.70;;;;;;5070253;28;20547;-64
2022/03/17 02:29:24;;;;;;;60.17;24.53;;;8.20;99.70;;;;;;5093669;28;20499;-63
2022/03/17 02:31:50;;;;;;;55.57;23.93;;;8.20;99.70;;;;;;5093362;28;20488;-63
2022/03/17 02:34:18;;;;;;;56.60;24.77;;;8.20;99.70;;;;;;5092625;28;20442;-64
2022/03/17 02:36:48;;;;;;;57.33;23.93;;;8.20;99.70;;;;;;5092383;28;20880;-63
2022/03/17 02:39:16;;;;;;;57.97;24.80;;;8.20;99.70;;;;;;5093357;28;20450;-64
2022/03/17 02:41:43;;;;;;;58.40;25.80;;;8.20;99.70;;;;;;5092565;28;20446;-64
2022/03/17 02:44:10;;;;;;;55.10;23.07;;;8.20;99.70;;;;;;5093507;28;20465;-64
2022/03/17 02:46:36;;;;;;;55.43;23.70;;;8.20;99.70;;;;;;5092150;28;20465;-64
2022/03/17 02:49:04;;;;;;;56.50;23.73;;;8.20;99.70;;;;;;5108805;28;20822;-65
2022/03/17 02:51:31;;;;;;;60.27;24.60;;;8.10;99.70;;;;;;5108076;28;20482;-65
2022/03/17 02:53:58;;;;;;;61.93;24.10;;;8.20;99.70;;;;;;5109775;28;20442;-62
2022/03/17 02:56:26;;;;;;;59.50;24.97;;;8.10;99.70;;;;;;5107676;28;20468;-64
2022/03/17 02:58:53;;;;;;;54.83;22.53;;;8.10;99.70;;;;;;5107913;28;20818;-64
2022/03/17 03:01:20;;;;;;;60.37;23.83;;;8.10;99.70;;;;;;5109749;28;20441;-62
2022/03/17 03:03:46;;;;;;;58.33;24.50;;;8.10;99.70;;;;;;5108011;28;20801;-64
2022/03/17 03:06:15;;;;;;;57.40;24.20;;;8.20;99.70;;;;;;5107934;28;20461;-65
2022/03/17 03:08:41;;;;;;;62.10;24.33;;;8.10;99.70;;;;;;5109225;28;20463;-64
2022/03/17 03:11:08;;;;;;;58.73;24.00;;;8.10;99.70;;;;;;5107769;28;20447;-64
2022/03/17 03:13:37;;;;;;;63.47;24.53;;;8.10;99.70;;;;;;5109546;28;20465;-64
2022/03/17 03:16:04;;;;;;;57.70;23.90;;;8.10;99.70;;;;;;5092946;28;20529;-64
2022/03/17 03:18:31;;;;;;;61.90;24.60;;;8.20;99.70;;;;;;5093064;28;20502;-64
2022/03/17 03:20:57;;;;;;;62.20;25.13;;;8.10;99.70;;;;;;5092059;28;20983;-64
2022/03/17 03:23:24;;;;;;;59.17;25.47;;;8.00;99.70;;;;;;5127870;22;20827;-60
2022/03/17 03:25:51;;;;;;;54.70;23.17;;;8.00;99.70;;;;;;5031905;28;20522;-61
2022/03/17 03:28:18;;;;;;;59.93;23.80;;;8.00;99.70;;;;;;5038342;28;20444;-60
2022/03/17 03:30:47;;;;;;;59.30;24.03;;;8.00;99.70;;;;;;5046996;28;20443;-61
2022/03/17 03:33:14;;;;;;;63.03;24.93;;;8.00;99.70;;;;;;5048214;28;20523;-58
2022/03/17 03:38:25;;;;;;;64.33;24.80;;;8.00;99.70;;;;;;5046761;28;20845;-62
2022/03/17 03:40:52;;;;;;;62.13;23.90;;;8.00;99.70;;;;;;5050195;28;20448;-60
2022/03/17 03:43:18;;;;;;;59.47;25.20;;;8.00;99.70;;;;;;5051380;28;20462;-61
2022/03/17 03:45:47;;;;;;;64.00;25.00;;;8.00;99.70;;;;;;5037246;28;20452;-59
2022/03/17 03:48:13;;;;;;;66.10;25.90;;;8.00;99.70;;;;;;5033864;28;20448;-60
2022/03/17 03:50:40;;;;;;;56.10;23.27;;;8.00;99.70;;;;;;5033918;28;20444;-58
2022/03/17 03:53:07;;;;;;;62.57;25.57;;;8.00;99.70;;;;;;5033845;28;20921;-59
2022/03/17 03:55:33;;;;;;;55.33;23.87;;;8.00;99.70;;;;;;5033653;28;21007;-61
2022/03/17 03:58:00;;;;;;;59.90;23.70;;;8.00;99.70;;;;;;5033897;28;20876;-58
2022/03/17 04:00:33;;;;;;;60.27;24.47;;;8.00;99.70;;;;;;5033894;28;20444;-59
2022/03/17 04:03:03;;;;;;;62.77;25.27;;;8.00;99.70;;;;;;5033717;28;20559;-59
2022/03/17 04:05:31;;;;;;;62.00;24.97;;;8.00;99.70;;;;;;5033184;28;20510;-59
2022/03/17 04:07:58;;;;;;;62.00;25.53;;;7.90;99.70;;;;;;5033684;28;20455;-61
2022/03/17 04:10:25;;;;;;;63.03;25.27;;;7.90;99.70;;;;;;5033900;28;20448;-61
2022/03/17 04:12:52;;;;;;;61.93;25.27;;;7.90;99.70;;;;;;5033502;28;20484;-61
2022/03/17 04:15:19;;;;;;;60.13;24.77;;;7.90;99.70;;;;;;5033484;28;20446;-59
2022/03/17 04:17:45;;;;;;;58.70;24.07;;;7.90;99.70;;;;;;5033630;28;20448;-59
2022/03/17 04:20:13;;;;;;;64.63;25.20;;;7.90;99.70;;;;;;5033557;28;20436;-59
2022/03/17 04:22:41;;;;;;;53.73;22.90;;;7.90;99.70;;;;;;5033392;28;20502;-58
2022/03/17 04:25:08;;;;;;;62.57;23.83;;;7.80;99.70;;;;;;5033359;28;20453;-60
2022/03/17 04:27:35;;;;;;;68.67;25.10;;;7.80;99.70;;;;;;5033367;28;20444;-59
2022/03/17 04:30:02;;;;;;;62.73;25.23;;;7.80;99.70;;;;;;5033290;28;20440;-60
2022/03/17 04:32:28;;;;;;;59.80;25.20;;;7.80;99.70;;;;;;5033130;28;20491;-63
2022/03/17 04:34:55;;;;;;;61.80;24.50;;;7.80;99.70;;;;;;5032967;28;20448;-62
2022/03/17 04:37:23;;;;;;;62.40;24.13;;;7.80;99.70;;;;;;5032570;28;20448;-60
2022/03/17 04:39:50;;;;;;;63.03;24.30;;;7.80;99.70;;;;;;5032978;28;20944;-60
2022/03/17 04:42:16;;;;;;;60.13;24.10;;;7.70;99.70;;;;;;5033022;28;20561;-59
2022/03/17 04:44:43;;;;;;;60.43;24.10;;;7.70;99.70;;;;;;5033055;28;20472;-63
2022/03/17 04:47:10;;;;;;;59.07;24.53;;;7.70;99.70;;;;;;5032812;28;20499;-60
2022/03/17 04:49:36;;;;;;;60.53;24.00;;;7.70;99.70;;;;;;5032994;28;20831;-60
2022/03/17 04:53:26;;;;;;;64.27;25.00;;;7.70;99.70;;;;;;5032533;28;20480;-60
2022/03/17 04:54:52;;;;;;;57.50;23.73;;;7.70;99.70;;;;;;5032513;28;20502;-61
2022/03/17 04:57:20;;;;;;;66.33;24.43;;;7.70;99.70;;;;;;5032918;28;20951;-60
2022/03/17 04:59:46;;;;;;;62.60;25.10;;;7.70;99.70;;;;;;5032777;28;20449;-61
2022/03/17 05:02:13;;;;;;;56.90;24.13;;;7.70;99.70;;;;;;5032797;28;20436;-61
2022/03/17 05:04:40;;;;;;;66.97;24.60;;;7.80;99.70;;;;;;5032363;28;20471;-58
2022/03/17 05:07:06;;;;;;;58.30;23.77;;;7.80;99.70;;;;;;5032467;28;20453;-60
2022/03/17 05:09:33;;;;;;;58.57;24.77;;;7.90;99.70;;;;;;5032585;28;20839;-62
2022/03/17 05:12:01;;;;;;;61.37;24.67;;;7.80;99.70;;;;;;5032462;28;20559;-61
2022/03/17 05:14:28;;;;;;;62.47;24.50;;;7.80;99.70;;;;;;5032609;28;20468;-61
2022/03/17 05:16:54;;;;;;;62.03;24.27;;;7.70;99.70;;;;;;5032275;28;20448;-60
2022/03/17 05:19:21;;;;;;;62.50;24.23;;;7.70;99.70;;;;;;5032333;28;20441;-61
2022/03/17 05:21:48;;;;;;;59.23;24.60;;;7.80;99.70;;;;;;5032396;28;20488;-61
2022/03/17 05:24:14;;;;;;;59.20;22.97;;;7.70;99.70;;;;;;5032142;28;20886;-61
2022/03/17 05:26:41;;;;;;;62.23;25.13;;;7.70;99.70;;;;;;5032185;28;20455;-60
2022/03/17 05:29:09;;;;;;;67.73;25.77;;;7.70;99.70;;;;;;5032298;28;20452;-59
2022/03/17 05:31:36;;;;;;;61.77;23.83;;;7.70;99.70;;;;;;5031768;28;20444;-62
2022/03/17 05:34:03;;;;;;;58.33;23.80;;;7.70;99.70;;;;;;5030872;28;20556;-60
2022/03/17 05:36:29;;;;;;;61.27;24.33;;;7.70;99.70;;;;;;5031596;28;20444;-60
2022/03/17 05:38:57;;;;;;;58.37;23.00;;;7.70;99.70;;;;;;5031940;28;20449;-58
2022/03/17 05:41:23;;;;;;;60.33;24.53;;;7.70;99.70;;;;;;5025814;28;20461;-64
2022/03/17 05:43:50;;;;;;;65.50;25.30;;;7.70;99.70;;;;;;5028244;28;20464;-58
2022/03/17 05:46:19;;;;;;;56.03;22.67;;;7.70;99.70;;;;;;5028570;28;20526;-60
2022/03/17 05:48:45;;;;;;;58.07;23.60;;;7.80;99.70;;;;;;5029488;28;20523;-59
2022/03/17 05:51:12;;;;;;;63.40;24.60;;;7.90;99.70;;;;;;5030577;28;20841;-62
2022/03/17 05:53:39;;;;;;;59.27;23.20;;;7.90;99.70;;;;;;5022624;28;20481;-61
2022/03/17 05:56:06;;;;;;;59.27;24.00;;;7.80;99.70;;;;;;5021390;28;20445;-63
2022/03/17 05:58:32;;;;;;;58.93;23.53;;;7.80;99.70;;;;;;5025546;28;20460;-61
2022/03/17 06:00:59;;;;;;;59.10;24.50;;;7.90;99.70;;;;;;5030651;28;20479;-59
2022/03/17 06:03:27;;;;;;;57.90;24.23;;;7.90;99.70;;;;;;5034285;28;20472;-63
2022/03/17 06:05:54;;;;;;;63.13;24.73;;;7.90;99.70;;;;;;5048122;28;20444;-59
2022/03/17 06:08:21;;;;;;;63.40;24.00;;;7.90;99.70;;;;;;5034571;28;20447;-60
2022/03/17 06:10:47;;;;;;;62.83;25.83;;;7.90;99.70;;;;;;5037671;28;20449;-58
2022/03/17 06:13:15;;;;;;;62.83;25.57;;;7.90;99.70;;;;;;5039022;28;20991;-63
2022/03/17 06:15:42;;;;;;;63.07;24.90;;;7.90;99.70;;;;;;5035181;28;20831;-62
2022/03/17 06:18:10;;;;;;;61.33;25.97;;;7.90;99.70;;;;;;5040314;28;20532;-63
2022/03/17 06:20:39;;;;;;;59.47;24.90;;;8.00;99.70;;;;;;5037056;28;20452;-64
2022/03/17 06:23:07;;;;;;;60.20;24.87;;;8.00;99.70;;;;;;5030872;28;20835;-62
2022/03/17 06:25:36;;;;;;;58.07;23.40;;;7.90;99.70;;;;;;5030516;28;20448;-64
2022/03/17 06:28:04;;;;;;;58.07;22.87;;;8.00;99.70;;;;;;5030840;28;20440;-62
2022/03/17 06:30:31;;;;;;;59.10;23.10;;;7.90;99.70;;;;;;5031343;28;20452;-62
2022/03/17 06:33:01;;;;;;;61.60;23.97;;;7.90;99.70;;;;;;5030857;28;20645;-63
2022/03/17 06:35:28;;;;;;;55.00;22.57;;;7.90;99.70;;;;;;5030673;28;20471;-63
2022/03/17 06:37:58;;;;;;;55.80;23.30;;;7.90;99.70;;;;;;5030741;28;20444;-63
2022/03/17 06:40:26;;;;;;;55.70;22.87;;;7.90;99.70;;;;;;5031071;28;20944;-63
2022/03/17 06:42:53;;;;;;;57.17;23.53;;;7.90;99.70;;;;;;5030258;28;20468;-67
2022/03/17 06:45:21;;;;;;;58.77;23.77;;;7.90;99.70;;;;;;5030440;28;20593;-60
2022/03/17 06:47:47;;;;;;;60.10;24.63;;;8.00;99.70;;;;;;5032980;28;20511;-60
2022/03/17 06:50:16;;;;;;;53.17;23.30;;;8.10;99.70;;;;;;5039376;28;20440;-64
2022/03/17 06:52:43;;;;;;;64.77;24.10;;;8.20;99.70;;;;;;5039427;28;20612;-61
2022/03/17 06:55:12;;;;;;;59.07;23.60;;;8.10;99.70;;;;;;5041029;28;20439;-61
2022/03/17 06:57:39;;;;;;;59.37;22.83;;;8.10;99.70;;;;;;5041247;28;20463;-60
2022/03/17 07:00:08;;;;;;;58.20;23.77;;;8.20;99.70;;;;;;5039253;28;20448;-63
2022/03/17 07:02:35;;;;;;;62.63;25.13;;;8.20;99.70;;;;;;5040374;28;20504;-62
2022/03/17 07:05:02;;;;;;;62.33;24.70;;;8.20;99.70;;;;;;5041567;28;20440;-65
2022/03/17 07:07:28;;;;;;;60.80;23.70;;;8.30;99.70;;;;;;5035855;28;20448;-61
2022/03/17 07:09:55;;;;;;;52.43;22.37;;;8.30;99.70;;;;;;5031045;28;20536;-60
2022/03/17 07:12:23;;;;;;;57.87;23.73;;;8.40;99.70;;;;;;5030646;28;20464;-60
2022/03/17 07:14:50;;;;;;;56.50;24.13;;;8.50;99.70;;;;;;5039604;28;21003;-62
2022/03/17 07:17:19;;;;;;;55.03;23.50;;;8.50;99.70;;;;;;5034790;28;20436;-61
2022/03/17 07:22:12;;;;;;;64.90;25.53;;;8.50;99.70;;;;;;5034362;28;20437;-64
2022/03/17 07:24:39;;;;;;;61.43;24.60;;;8.60;99.70;;;;;;5034393;28;20502;-60
2022/03/17 07:27:06;;;;;;;59.20;23.37;;;8.60;99.70;;;;;;5034302;28;20444;-62
2022/03/17 07:29:34;;;;;;;59.57;24.90;;;8.60;99.70;;;;;;5034492;28;20436;-61
2022/03/17 07:32:01;;;;;;;60.40;25.13;;;8.60;99.70;;;;;;5034633;28;20817;-60
2022/03/17 07:34:28;;;;;;;71.30;27.70;;;8.50;99.70;;;;;;5034434;28;20975;-61
2022/03/17 07:36:54;;;;;;;71.47;26.47;;;8.50;99.70;;;;;;5034289;28;20440;-59
2022/03/17 07:39:21;;;;;;;67.73;24.90;;;8.60;99.70;;;;;;5033818;28;20457;-62
2022/03/17 07:41:48;;;;;;;104.50;30.20;;;8.60;99.70;;;;;;5034508;28;20445;-61
2022/03/17 07:44:15;;;;;;;75.43;26.67;;;8.60;99.70;;;;;;5031992;28;20504;-61
2022/03/17 07:46:43;;;;;;;78.83;26.90;;;8.70;99.70;;;;;;5033897;28;20472;-61
2022/03/17 07:49:09;;;;;;;81.43;27.10;;;8.80;99.70;;;;;;5035072;28;20452;-57
2022/03/17 07:51:39;;;;;;;90.17;28.40;;;8.90;99.70;;;;;;5040308;28;20449;-58
2022/03/17 07:54:07;;;;;;;71.77;26.27;;;8.90;99.70;;;;;;5033998;28;20511;-60
2022/03/17 07:56:34;;;;;;;64.30;25.50;;;8.90;99.70;;;;;;5033581;28;20909;-61
2022/03/17 07:59:02;;;;;;;68.03;26.10;;;9.00;99.70;;;;;;5029669;28;20518;-64
2022/03/17 08:01:28;;;;;;;84.00;28.47;;;9.00;99.70;;;;;;5022204;28;20516;-57
2022/03/17 08:03:56;;;;;;;65.77;25.50;;;9.10;99.70;;;;;;5025422;28;20465;-63
2022/03/17 08:06:24;;;;;;;64.07;24.80;;;9.40;99.70;;;;;;5040983;28;20876;-64
2022/03/17 08:08:51;;;;;;;61.90;25.13;;;9.40;99.70;;;;;;5035339;28;20452;-60
2022/03/17 08:11:18;;;;;;;59.40;24.37;;;9.40;99.70;;;;;;5031299;28;20468;-64
2022/03/17 08:13:45;;;;;;;63.50;25.63;;;9.40;99.70;;;;;;5038955;28;20550;-61
2022/03/17 08:16:12;;;;;;;59.93;24.47;;;9.40;99.70;;;;;;5039395;28;21012;-61
2022/03/17 08:18:39;;;;;;;68.70;26.27;;;9.30;99.70;;;;;;5036618;28;20476;-61
2022/03/17 08:21:08;;;;;;;67.47;27.97;;;9.30;99.70;;;;;;5025024;28;20449;-57
2022/03/17 08:23:35;;;;;;;66.03;27.43;;;9.30;99.70;;;;;;5015807;28;20584;-62
2022/03/17 08:26:01;;;;;;;71.23;29.07;;;9.30;99.70;;;;;;5013270;28;20460;-59
2022/03/17 08:28:28;;;;;;;60.37;24.67;;;9.30;99.70;;;;;;5014575;28;20450;-58
2022/03/17 08:30:56;;;;;;;62.90;25.57;;;9.40;99.70;;;;;;5030399;28;20480;-60
2022/03/17 08:33:23;;;;;;;65.03;26.80;;;9.40;99.70;;;;;;5029781;28;20570;-59
2022/03/17 08:35:50;;;;;;;62.87;25.87;;;9.30;99.70;;;;;;5029612;28;20535;-60
2022/03/17 08:38:18;;;;;;;59.77;24.87;;;9.40;99.70;;;;;;5030213;28;20451;-60
2022/03/17 08:40:44;;;;;;;60.20;24.77;;;9.50;99.70;;;;;;5029659;28;20448;-59
2022/03/17 08:43:12;;;;;;;58.83;24.10;;;9.60;99.70;;;;;;5031300;28;20465;-60
2022/03/17 08:51:10;;;;;;;56.53;23.07;;;10.00;99.70;;;;;;5021608;28;20821;-58
2022/03/17 08:53:38;;;;;;;60.17;25.63;;;10.10;99.70;;;;;;5029517;28;20589;-61
2022/03/17 08:56:05;;;;;;;58.53;25.03;;;10.00;99.70;;;;;;5031057;28;20452;-60
2022/03/17 08:58:34;;;;;;;58.63;24.77;;;10.00;99.70;;;;;;5029689;28;20460;-59
2022/03/17 09:01:01;;;;;;;57.63;24.60;;;10.10;99.70;;;;;;5014212;28;20464;-62
2022/03/17 09:03:30;;;;;;;63.97;25.83;;;10.10;99.70;;;;;;5015006;28;20501;-59
2022/03/17 09:05:59;;;;;;;59.07;25.10;;;10.00;99.70;;;;;;5018950;28;20771;-60
2022/03/17 09:08:26;;;;;;;60.23;24.60;;;10.00;99.70;;;;;;5031167;28;20507;-58
2022/03/17 09:10:56;;;;;;;59.73;25.70;;;10.00;99.70;;;;;;5032757;28;20479;-58
2022/03/17 09:13:23;;;;;;;59.90;24.70;;;10.10;99.70;;;;;;5032357;28;20519;-59
2022/03/17 09:15:50;;;;;;;62.07;25.33;;;10.20;99.70;;;;;;5032115;28;20452;-62
2022/03/17 09:18:17;;;;;;;60.83;25.90;;;10.30;99.70;;;;;;5032288;28;20491;-56
2022/03/17 09:20:44;;;;;;;59.23;25.77;;;10.30;99.70;;;;;;5032369;28;20959;-63
2022/03/17 09:23:11;;;;;;;57.10;25.17;;;10.30;99.70;;;;;;5032125;28;20481;-60
2022/03/17 09:25:38;;;;;;;53.90;23.87;;;10.40;99.70;;;;;;5033662;28;20474;-62
2022/03/17 09:28:06;;;;;;;61.73;26.50;;;10.40;99.70;;;;;;5032169;28;20445;-64
2022/03/17 09:30:34;;;;;;;61.83;25.10;;;10.50;99.70;;;;;;5032466;28;20440;-63
2022/03/17 09:33:02;;;;;;;59.47;24.57;;;10.30;99.70;;;;;;5032229;28;20477;-63
2022/03/17 09:35:29;;;;;;;57.27;25.83;;;10.20;99.70;;;;;;5031967;28;20480;-64
2022/03/17 09:37:56;;;;;;;61.90;26.10;;;10.30;99.70;;;;;;5030996;28;20998;-63
2022/03/17 09:40:23;;;;;;;61.67;25.30;;;10.40;99.70;;;;;;5036810;28;20452;-63
2022/03/17 09:43:18;;;;;;;56.50;24.80;;;10.40;99.70;;;;;;5032023;28;20468;-63
2022/03/17 09:45:41;;;;;;;61.77;27.20;;;10.60;99.70;;;;;;5031279;28;20441;-63
2022/03/17 09:48:09;;;;;;;65.17;25.40;;;10.40;99.70;;;;;;5031234;28;20527;-63
2022/03/17 09:50:36;;;;;;;60.60;26.60;;;10.50;99.70;;;;;;5031859;28;20449;-65
2022/03/17 09:53:03;;;;;;;59.10;24.80;;;10.50;99.70;;;;;;5031674;28;21057;-64
2022/03/17 09:55:30;;;;;;;67.53;26.60;;;10.50;99.70;;;;;;5031521;28;20714;-63
2022/03/17 09:57:57;;;;;;;70.57;27.83;;;10.50;99.70;;;;;;5031198;28;20449;-64
2022/03/17 10:00:47;;;;;;;62.97;27.27;;;10.30;99.70;;;;;;5031860;28;20440;-63
2022/03/17 10:03:12;;;;;;;62.23;26.40;;;10.40;99.70;;;;;;5031315;28;20511;-65
2022/03/17 10:05:39;;;;;;;62.40;25.37;;;10.40;99.70;;;;;;5031461;28;20445;-64
2022/03/17 10:08:06;;;;;;;66.20;28.70;;;10.50;99.70;;;;;;5031324;28;20448;-63
2022/03/17 10:10:37;;;;;;;64.63;27.10;;;10.70;99.70;;;;;;5031544;28;20445;-63
2022/03/17 10:13:05;;;;;;;64.40;25.33;;;10.60;99.70;;;;;;5029594;28;20539;-64
2022/03/17 10:15:32;;;;;;;63.77;25.47;;;10.60;99.70;;;;;;5030667;28;20567;-63
2022/03/17 10:18:00;;;;;;;60.30;24.90;;;10.50;99.70;;;;;;5031264;28;20527;-64
2022/03/17 10:20:29;;;;;;;63.60;25.60;;;10.70;99.70;;;;;;5031468;28;20440;-64
2022/03/17 10:22:58;;;;;;;62.87;25.50;;;10.70;99.70;;;;;;5030927;28;20479;-64
2022/03/17 10:25:26;;;;;;;70.87;27.73;;;10.70;99.70;;;;;;5030997;28;20451;-64
2022/03/17 10:27:55;;;;;;;99.57;28.03;;;10.70;99.70;;;;;;5031134;28;20448;-63
2022/03/17 10:30:23;;;;;;;62.00;25.00;;;10.80;99.70;;;;;;5031295;28;20460;-63
2022/03/17 10:32:56;;;;;;;61.07;24.27;;;11.00;99.70;;;;;;5031124;28;20496;-63
2022/03/17 10:35:31;;;;;;;60.27;26.07;;;11.10;99.70;;;;;;5030968;28;20484;-64
2022/03/17 10:37:57;;;;;;;59.67;25.40;;;11.20;99.70;;;;;;5031203;28;20444;-63
2022/03/17 10:40:31;;;;;;;60.27;27.40;;;11.20;99.70;;;;;;5031055;28;20452;-64
2022/03/17 10:43:19;;;;;;;65.10;28.80;;;11.20;99.70;;;;;;5030807;28;20552;-64
2022/03/17 10:45:47;;;;;;;58.37;25.03;;;11.00;99.70;;;;;;5030214;28;20555;-63
2022/03/17 10:48:13;;;;;;;63.17;26.63;;;11.10;99.70;;;;;;5029901;28;20444;-64
2022/03/17 10:50:43;;;;;;;64.00;27.10;;;11.00;99.70;;;;;;5030755;28;20822;-64
2022/03/17 10:53:10;;;;;;;67.13;24.50;;;11.00;99.70;;;;;;5030839;28;20893;-63
2022/03/17 10:55:38;;;;;;;59.70;25.20;;;11.00;99.70;;;;;;5030675;28;20546;-64
2022/03/17 10:58:13;;;;;;;62.70;26.40;;;11.00;99.70;;;;;;5030562;28;20462;-63
2022/03/17 11:00:48;;;;;;;63.77;26.40;;;11.10;99.70;;;;;;5030898;28;20440;-64
2022/03/17 11:03:15;;;;;;;63.10;25.70;;;11.00;99.70;;;;;;5030633;28;20975;-63
2022/03/17 11:05:43;;;;;;;61.23;26.30;;;11.00;99.70;;;;;;5030634;28;20437;-64
2022/03/17 11:08:11;;;;;;;65.00;27.50;;;11.00;99.70;;;;;;5030412;28;20437;-63
2022/03/17 11:10:39;;;;;;;63.77;27.10;;;11.10;99.70;;;;;;5030212;28;20452;-62
2022/03/17 11:13:09;;;;;;;59.30;25.57;;;11.30;99.70;;;;;;5030195;28;20473;-63
2022/03/17 11:15:38;;;;;;;60.10;25.60;;;11.40;99.70;;;;;;5030416;28;20575;-64
2022/03/17 11:18:07;;;;;;;63.77;26.23;;;11.40;99.70;;;;;;5030519;28;20957;-65
2022/03/17 11:20:35;;;;;;;66.63;26.40;;;11.30;99.70;;;;;;5030458;28;20452;-64
2022/03/17 11:23:10;;;;;;;75.10;25.07;;;11.40;99.70;;;;;;5030199;28;20483;-65
2022/03/17 11:25:38;;;;;;;71.63;26.63;;;11.40;99.70;;;;;;5030007;28;20940;-64
2022/03/17 11:28:06;;;;;;;66.73;27.20;;;11.40;99.70;;;;;;5030448;28;20449;-64
2022/03/17 11:30:43;;;;;;;59.60;25.80;;;11.60;99.70;;;;;;5030737;28;20449;-64
2022/03/17 11:33:28;;;;;;;58.87;24.77;;;11.60;99.70;;;;;;5030615;28;20464;-63
2022/03/17 11:35:59;;;;;;;62.97;26.07;;;11.60;99.70;;;;;;5030377;28;20831;-64
2022/03/17 11:38:28;;;;;;;61.30;27.10;;;11.70;99.70;;;;;;5030565;28;20828;-63
2022/03/17 11:41:12;;;;;;;60.80;25.60;;;11.70;99.70;;;;;;5029881;28;20527;-63
2022/03/17 11:43:58;;;;;;;62.40;25.07;;;11.70;99.70;;;;;;5029691;28;20496;-62
2022/03/17 11:46:26;;;;;;;63.30;26.03;;;11.60;99.70;;;;;;5030387;28;20453;-64
2022/03/17 11:48:55;;;;;;;65.43;25.90;;;11.80;99.70;;;;;;5030074;28;20448;-64
2022/03/17 11:51:23;;;;;;;57.60;25.60;;;11.80;99.70;;;;;;5030588;28;20514;-64
2022/03/17 11:54:05;;;;;;;69.77;24.17;;;11.70;99.70;;;;;;5030340;28;20471;-64
2022/03/17 11:56:34;;;;;;;62.30;25.00;;;11.60;99.70;;;;;;5030284;28;20530;-64
2022/03/17 11:59:00;;;;;;;62.83;24.60;;;11.50;99.70;;;;;;5030528;28;20456;-63
2022/03/17 12:01:30;;;;;;;65.67;25.40;;;11.40;99.70;;;;;;5032657;28;20448;-64
2022/03/17 12:03:58;;;;;;;62.90;23.70;;;11.50;99.70;;;;;;5033961;28;20468;-64
2022/03/17 12:06:28;;;;;;;58.33;24.37;;;11.40;99.70;;;;;;5033727;28;20448;-63
2022/03/17 12:09:00;;;;;;;60.20;23.53;;;11.40;99.70;;;;;;5033783;28;20502;-64
2022/03/17 12:11:29;;;;;;;66.43;26.90;;;11.50;99.70;;;;;;5034035;28;20480;-63
2022/03/17 12:14:18;;;;;;;59.57;25.07;;;11.30;99.70;;;;;;5033742;28;20460;-63
2022/03/17 12:16:48;;;;;;;63.80;25.83;;;11.30;99.70;;;;;;5032783;28;20963;-65
2022/03/17 12:19:32;;;;;;;63.77;26.00;;;11.30;99.70;;;;;;5033576;28;20451;-66
2022/03/17 12:22:11;;;;;;;62.73;25.73;;;11.30;99.70;;;;;;5033012;28;20536;-66
2022/03/17 12:24:41;;;;;;;63.30;26.20;;;11.20;99.70;;;;;;5033503;28;20475;-66
2022/03/17 12:27:12;;;;;;;69.17;27.00;;;11.10;99.70;;;;;;5033691;28;21255;-65
2022/03/17 12:29:39;;;;;;;69.50;28.80;;;11.20;99.70;;;;;;5033298;28;20444;-64
2022/03/17 12:32:11;;;;;;;64.87;25.10;;;11.20;99.70;;;;;;5033581;28;20948;-64
2022/03/17 12:34:38;;;;;;;68.13;26.33;;;11.20;99.70;;;;;;5033594;28;21107;-64
2022/03/17 12:37:06;;;;;;;67.70;27.07;;;11.20;99.70;;;;;;5033176;28;20459;-64
2022/03/17 12:39:35;;;;;;;63.50;27.23;;;11.20;99.70;;;;;;5033881;28;20814;-64
2022/03/17 12:42:14;;;;;;;70.93;26.57;;;11.20;99.70;;;;;;5033239;28;20456;-64
2022/03/17 12:44:51;;;;;;;66.53;26.67;;;11.20;99.70;;;;;;5032600;28;20492;-66
2022/03/17 12:47:19;;;;;;;75.10;26.60;;;11.20;99.70;;;;;;5033408;28;20955;-64
2022/03/17 12:49:46;;;;;;;67.20;27.20;;;11.30;99.70;;;;;;5033192;28;20841;-64
2022/03/17 12:52:20;;;;;;;65.50;25.60;;;11.40;99.70;;;;;;5033146;28;20445;-64
2022/03/17 12:54:47;;;;;;;64.97;25.77;;;11.40;99.70;;;;;;5032912;28;20523;-62
2022/03/17 12:57:15;;;;;;;72.87;27.20;;;11.40;99.70;;;;;;5033238;28;20452;-62
2022/03/17 12:59:42;;;;;;;66.80;28.03;;;11.40;99.70;;;;;;5032891;28;20506;-62